Angaur Airstrip


Codes: ANG/
Name: Angaur Airstrip
City: Angaur Island
Country: Palau
Elevation: 20 ft.
Wikipedia:

Photos at Angaur Airstrip


   Photos courtesy of SpottingLog. You can add your own sightings and photos by signing up for a free trial today.



No photos found.

Weather at Angaur Airstrip


Time (UTC)DescriptionTempratureWindCloud coverageVisibilityPressureHumidity
13-Jun-2024 03:00Overcast Clouds28°C2 mph, SW100%10000m1010hPa73%
13-Jun-2024 06:00Overcast Clouds28°C2 mph, S100%10000m1009hPa72%
13-Jun-2024 09:00Overcast Clouds29°C2 mph, S100%10000m1009hPa71%
13-Jun-2024 12:00Overcast Clouds29°C2 mph, SW100%10000m1011hPa73%
13-Jun-2024 15:00Light Rain28°C4 mph, SW100%10000m1011hPa77%
13-Jun-2024 18:00Light Rain28°C4 mph, SW100%10000m1009hPa77%
13-Jun-2024 21:00Light Rain28°C4 mph, S100%10000m1010hPa73%
14-Jun-2024 00:00Moderate Rain27°C11 mph, SE100%10000m1012hPa81%
14-Jun-2024 03:00Moderate Rain26°C13 mph, S94%10000m1010hPa88%
14-Jun-2024 06:00Moderate Rain27°C9 mph, SW97%10000m1009hPa82%
14-Jun-2024 09:00Light Rain27°C7 mph, SW100%10000m1010hPa81%
14-Jun-2024 12:00Light Rain27°C7 mph, SW100%10000m1010hPa81%
14-Jun-2024 15:00Overcast Clouds27°C2 mph, N94%10000m1010hPa76%
14-Jun-2024 18:00Overcast Clouds28°C4 mph, NE97%10000m1009hPa75%
14-Jun-2024 21:00Broken Clouds28°C7 mph, NE69%10000m1010hPa74%
15-Jun-2024 00:00Broken Clouds29°C9 mph, E66%10000m1010hPa73%
15-Jun-2024 03:00Light Rain29°C11 mph, E64%10000m1009hPa73%
15-Jun-2024 06:00Broken Clouds29°C9 mph, E76%10000m1008hPa73%
15-Jun-2024 09:00Light Rain29°C9 mph, E83%10000m1008hPa73%
15-Jun-2024 12:00Light Rain29°C11 mph, E68%10000m1010hPa75%
15-Jun-2024 15:00Light Rain29°C11 mph, E87%10000m1009hPa74%
15-Jun-2024 18:00Light Rain29°C11 mph, E70%10000m1009hPa75%
15-Jun-2024 21:00Light Rain28°C11 mph, E28%10000m1010hPa77%
16-Jun-2024 00:00Light Rain29°C9 mph, SE47%10000m1011hPa75%
16-Jun-2024 03:00Light Rain29°C9 mph, SE100%10000m1010hPa75%
16-Jun-2024 06:00Light Rain29°C4 mph, SE98%10000m1008hPa71%
16-Jun-2024 09:00Light Rain29°C4 mph, SE95%10000m1009hPa75%
16-Jun-2024 12:00Light Rain28°C4 mph, SE62%10000m1011hPa77%
16-Jun-2024 15:00Light Rain28°C4 mph, S69%10000m1010hPa75%
16-Jun-2024 18:00Light Rain28°C4 mph, S75%10000m1009hPa78%
16-Jun-2024 21:00Light Rain28°C4 mph, SW99%10000m1010hPa76%
17-Jun-2024 00:00Overcast Clouds28°C4 mph, SW88%10000m1011hPa73%
17-Jun-2024 03:00Light Rain28°C2 mph, SW100%10000m1010hPa73%
17-Jun-2024 06:00Light Rain28°C2 mph, W100%10000m1009hPa71%
17-Jun-2024 09:00Light Rain29°C0 mph, NW87%10000m1009hPa69%
17-Jun-2024 12:00Light Rain28°C2 mph, E76%10000m1012hPa73%
17-Jun-2024 15:00Light Rain28°C2 mph, S99%10000m1011hPa71%
17-Jun-2024 18:00Overcast Clouds28°C4 mph, S89%10000m1009hPa70%
17-Jun-2024 21:00Light Rain28°C7 mph, S96%10000m1009hPa72%
18-Jun-2024 00:00Light Rain28°C4 mph, S97%10000m1011hPa74%